createdAt,value
2019-04-03T00:01:06.707Z,67.30
2019-04-03T00:03:36.076Z,67.90
2019-04-03T00:06:06.064Z,68.20
2019-04-03T00:08:36.618Z,68.40
2019-04-03T00:11:09.402Z,68.30
2019-04-03T00:13:41.469Z,68.40
2019-04-03T00:16:10.628Z,68.50
2019-04-03T00:18:40.008Z,68.60
2019-04-03T00:21:09.358Z,68.60
2019-04-03T00:23:38.759Z,68.60
2019-04-03T00:26:08.162Z,68.50
2019-04-03T00:28:37.725Z,68.60
2019-04-03T00:31:07.291Z,68.60
2019-04-03T00:33:36.724Z,68.50
2019-04-03T00:36:06.134Z,68.50
2019-04-03T00:38:35.517Z,68.70
2019-04-03T00:41:04.955Z,68.60
2019-04-03T00:43:34.299Z,68.70
2019-04-03T00:46:03.741Z,68.70
2019-04-03T00:48:35.375Z,69.00
2019-04-03T00:51:04.983Z,69.50
2019-04-03T00:53:34.403Z,70.40
2019-04-03T00:56:05.101Z,70.30
2019-04-03T00:58:40.261Z,70.60
2019-04-03T01:01:11.622Z,70.90
2019-04-03T01:03:41.500Z,71.30
2019-04-03T01:06:10.847Z,72.50
2019-04-03T01:08:40.194Z,71.80
2019-04-03T01:11:09.537Z,71.90
2019-04-03T01:13:39.990Z,72.00
2019-04-03T01:16:09.366Z,72.20
2019-04-03T01:18:39.696Z,72.60
2019-04-03T01:21:09.121Z,72.50
2019-04-03T01:23:38.574Z,72.70
2019-04-03T01:26:10.076Z,72.90
2019-04-03T01:28:41.448Z,73.10
2019-04-03T01:31:10.077Z,73.50
2019-04-03T01:33:39.429Z,73.80
2019-04-03T01:36:08.797Z,73.60
2019-04-03T01:38:38.415Z,73.60
2019-04-03T01:41:08.021Z,74.00
2019-04-03T01:43:38.410Z,73.70
2019-04-03T01:46:07.872Z,73.60
2019-04-03T01:48:37.282Z,74.00
2019-04-03T01:51:06.656Z,74.40
2019-04-03T01:53:37.266Z,73.90
2019-04-03T01:56:06.774Z,74.20
2019-04-03T01:58:36.883Z,74.60
2019-04-03T02:01:08.006Z,74.80
2019-04-03T02:03:41.183Z,75.10
2019-04-03T02:06:09.874Z,75.10
2019-04-03T02:08:39.444Z,75.30
2019-04-03T02:11:08.839Z,75.70
2019-04-03T02:13:38.181Z,75.80
2019-04-03T02:16:07.519Z,76.00
2019-04-03T02:18:37.009Z,76.20
2019-04-03T02:21:07.550Z,76.10
2019-04-03T02:23:37.146Z,76.20
2019-04-03T02:26:07.017Z,76.50
2019-04-03T02:28:38.740Z,76.80
2019-04-03T02:31:08.134Z,77.00
2019-04-03T02:33:37.557Z,77.30
2019-04-03T02:36:06.938Z,77.60
2019-04-03T02:38:36.617Z,77.60
2019-04-03T02:41:09.263Z,77.60
2019-04-03T02:43:38.875Z,77.70
2019-04-03T02:46:08.427Z,77.80
2019-04-03T02:48:38.784Z,78.10
2019-04-03T02:51:08.495Z,78.30
2019-04-03T02:53:37.823Z,78.40
2019-04-03T02:56:07.169Z,78.60
2019-04-03T02:58:36.773Z,78.70
2019-04-03T03:01:07.307Z,78.70
2019-04-03T03:03:37.462Z,78.60
2019-04-03T03:06:06.866Z,78.40
2019-04-03T03:08:40.061Z,78.20
2019-04-03T03:11:08.750Z,78.10
2019-04-03T03:13:39.002Z,78.20
2019-04-03T03:16:09.528Z,78.10
2019-04-03T03:18:38.903Z,78.00
2019-04-03T03:21:11.579Z,78.20
2019-04-03T03:23:41.542Z,78.20
2019-04-03T03:26:11.141Z,78.40
2019-04-03T03:28:45.598Z,78.70
2019-04-03T03:31:14.382Z,78.60
2019-04-03T03:33:44.546Z,78.90
2019-04-03T03:36:19.939Z,79.60
2019-04-03T03:38:46.131Z,79.10
2019-04-03T03:41:16.007Z,79.40
2019-04-03T03:43:46.240Z,79.00
2019-04-03T03:46:15.882Z,79.40
2019-04-03T03:48:45.794Z,79.70
2019-04-03T03:51:15.627Z,79.70
2019-04-03T03:53:47.668Z,79.70
2019-04-03T03:56:18.894Z,79.40
2019-04-03T03:58:49.789Z,79.90
2019-04-03T04:01:20.016Z,79.90
2019-04-03T04:03:49.763Z,80.30
2019-04-03T04:06:20.177Z,80.60
2019-04-03T04:08:51.172Z,80.40
2019-04-03T04:11:36.815Z,80.40
2019-04-03T04:14:06.205Z,80.60
2019-04-03T04:16:37.070Z,80.50
2019-04-03T04:19:06.979Z,80.60
2019-04-03T04:21:37.291Z,80.40
2019-04-03T04:24:06.839Z,80.10
2019-04-03T04:26:36.205Z,80.00
2019-04-03T04:29:05.612Z,79.70
2019-04-03T04:31:36.177Z,79.40
2019-04-03T04:34:06.900Z,79.50
2019-04-03T04:36:36.221Z,79.30
2019-04-03T04:39:08.734Z,79.80
2019-04-03T04:41:38.131Z,79.60
2019-04-03T04:44:08.013Z,79.40
2019-04-03T04:46:38.499Z,79.10
2019-04-03T04:49:07.879Z,78.90
2019-04-03T04:51:37.208Z,79.00
2019-04-03T04:54:06.579Z,78.90
2019-04-03T04:56:37.811Z,79.20
2019-04-03T04:59:06.987Z,79.10
2019-04-03T05:01:36.330Z,79.30
2019-04-03T05:04:06.043Z,79.50
2019-04-03T05:06:35.561Z,79.50
2019-04-03T05:09:06.698Z,79.40
2019-04-03T05:11:38.268Z,79.40
2019-04-03T05:14:07.170Z,79.30
2019-04-03T05:16:36.784Z,79.10
2019-04-03T05:19:17.240Z,79.10
2019-04-03T05:21:41.994Z,78.80
2019-04-03T05:24:13.733Z,78.70
2019-04-03T05:26:42.752Z,78.50
2019-04-03T05:29:12.090Z,78.50
2019-04-03T05:31:41.629Z,78.20
2019-04-03T05:34:13.208Z,78.10
2019-04-03T05:36:42.067Z,77.80
2019-04-03T05:39:11.430Z,77.50
2019-04-03T05:41:40.807Z,77.40
2019-04-03T05:44:10.193Z,77.30
2019-04-03T05:46:41.202Z,77.20
2019-04-03T05:49:15.476Z,77.20
2019-04-03T05:51:44.871Z,77.20
2019-04-03T05:54:14.871Z,76.80
2019-04-03T05:56:45.437Z,76.80
2019-04-03T05:59:14.805Z,76.40
2019-04-03T06:01:46.575Z,76.00
2019-04-03T06:04:15.348Z,75.70
2019-04-03T06:06:47.096Z,75.40
2019-04-03T06:09:18.343Z,75.10
2019-04-03T06:11:48.506Z,74.90
2019-04-03T06:14:19.799Z,74.60
2019-04-03T06:16:49.955Z,74.30
2019-04-03T06:19:19.375Z,75.00
2019-04-03T06:21:48.709Z,73.70
2019-04-03T06:24:18.484Z,73.50
2019-04-03T06:26:48.287Z,73.30
2019-04-03T06:29:19.586Z,73.00
2019-04-03T06:31:48.940Z,72.90
2019-04-03T06:34:18.305Z,72.80
2019-04-03T06:36:49.738Z,72.40
2019-04-03T06:39:22.147Z,72.10
2019-04-03T06:41:49.926Z,71.80
2019-04-03T06:44:22.604Z,71.40
2019-04-03T06:46:54.766Z,71.30
2019-04-03T06:49:24.758Z,70.80
2019-04-03T06:51:54.338Z,70.80
2019-04-03T06:54:24.227Z,70.50
2019-04-03T06:56:54.168Z,69.90
2019-04-03T06:59:23.837Z,69.50
2019-04-03T07:01:53.586Z,69.10
2019-04-03T07:04:23.199Z,69.20
2019-04-03T07:06:55.354Z,69.40
2019-04-03T07:09:34.112Z,69.20
2019-04-03T07:11:57.258Z,68.70
2019-04-03T07:14:26.834Z,68.40
2019-04-03T07:16:56.727Z,67.90
2019-04-03T07:19:26.119Z,67.70
2019-04-03T07:21:55.995Z,66.40
2019-04-03T07:24:25.553Z,65.70
2019-04-03T07:26:55.022Z,65.00
2019-04-03T07:29:25.578Z,63.70
2019-04-03T07:31:55.794Z,62.80
2019-04-03T07:34:25.569Z,61.00
2019-04-03T07:36:54.931Z,60.00
2019-04-03T07:39:24.355Z,59.20
2019-04-03T07:41:54.824Z,58.20
2019-04-03T07:44:27.649Z,56.70
2019-04-03T07:46:58.371Z,54.80
2019-04-03T07:49:27.833Z,53.80
2019-04-03T07:51:57.235Z,53.10
2019-04-03T07:54:27.055Z,53.50
2019-04-03T07:56:57.409Z,53.00
2019-04-03T07:59:28.236Z,53.00
2019-04-03T08:01:57.813Z,52.30
2019-04-03T08:04:27.209Z,52.20
2019-04-03T08:06:56.615Z,52.60
2019-04-03T08:09:25.948Z,51.30
2019-04-03T08:12:03.249Z,50.70
2019-04-03T08:14:32.524Z,50.40
2019-04-03T08:17:02.064Z,49.70
2019-04-03T08:19:31.647Z,49.50
2019-04-03T08:22:02.051Z,49.10
2019-04-03T08:24:31.678Z,48.80
2019-04-03T08:27:01.081Z,48.30
2019-04-03T08:29:33.486Z,47.60
2019-04-03T08:32:03.186Z,47.50
2019-04-03T08:34:32.764Z,47.40
2019-04-03T08:37:02.369Z,47.50
2019-04-03T08:39:31.865Z,47.20
2019-04-03T08:42:01.653Z,46.90
2019-04-03T08:44:31.556Z,47.10
2019-04-03T08:47:01.045Z,47.40
2019-04-03T08:49:30.500Z,47.70
2019-04-03T08:51:59.995Z,47.30
2019-04-03T08:54:29.626Z,46.80
2019-04-03T08:56:59.061Z,46.50
2019-04-03T08:59:28.752Z,46.50
2019-04-03T09:01:58.769Z,46.70
2019-04-03T09:04:28.239Z,46.70
2019-04-03T09:06:57.790Z,46.40
2019-04-03T09:09:29.905Z,45.60
2019-04-03T09:11:58.163Z,45.30
2019-04-03T09:14:27.630Z,45.10
2019-04-03T09:16:57.041Z,44.90
2019-04-03T09:19:26.477Z,44.70
2019-04-03T09:21:55.859Z,44.50
2019-04-03T09:24:25.368Z,44.40
2019-04-03T09:26:54.832Z,44.20
2019-04-03T09:29:24.236Z,43.90
2019-04-03T09:31:56.003Z,43.50
2019-04-03T09:34:25.061Z,43.10
2019-04-03T09:36:54.740Z,43.00
2019-04-03T09:39:24.097Z,43.10
2019-04-03T09:41:53.554Z,43.20
2019-04-03T09:44:25.485Z,43.40
2019-04-03T09:46:54.081Z,42.70
2019-04-03T09:49:23.504Z,42.10
2019-04-03T09:51:53.177Z,41.20
2019-04-03T09:54:23.026Z,40.60
2019-04-03T09:57:01.634Z,39.80
2019-04-03T09:59:26.464Z,39.70
2019-04-03T10:01:55.956Z,39.30
2019-04-03T10:04:26.704Z,39.00
2019-04-03T10:06:56.447Z,39.10
2019-04-03T10:09:25.799Z,38.90
2019-04-03T10:11:55.215Z,38.50
2019-04-03T10:14:25.767Z,38.50
2019-04-03T10:16:55.687Z,38.30
2019-04-03T10:19:25.039Z,38.30
2019-04-03T10:21:54.375Z,38.00
2019-04-03T10:24:23.808Z,37.80
2019-04-03T10:26:53.189Z,37.20
2019-04-03T10:29:22.515Z,37.30
2019-04-03T10:31:54.792Z,37.40
2019-04-03T10:34:23.002Z,37.00
2019-04-03T10:36:52.733Z,36.70
2019-04-03T10:39:22.346Z,36.50
2019-04-03T10:41:51.898Z,37.00
2019-04-03T10:44:21.226Z,36.80
2019-04-03T10:46:50.771Z,36.30
2019-04-03T10:49:21.641Z,35.80
2019-04-03T10:51:51.228Z,35.90
2019-04-03T10:54:21.921Z,35.40
2019-04-03T10:57:02.440Z,35.10
2019-04-03T10:59:31.118Z,34.80
2019-04-03T11:02:00.840Z,34.60
2019-04-03T11:04:30.819Z,34.60
2019-04-03T11:07:00.183Z,34.10
2019-04-03T11:09:29.588Z,33.70
2019-04-03T11:12:00.584Z,33.00
2019-04-03T11:14:30.723Z,33.40
2019-04-03T11:17:00.490Z,32.40
2019-04-03T11:19:30.018Z,32.60
2019-04-03T11:21:59.472Z,32.40
2019-04-03T11:24:30.032Z,31.90
2019-04-03T11:26:59.380Z,31.90
2019-04-03T11:29:28.808Z,31.50
2019-04-03T11:32:02.696Z,31.60
2019-04-03T11:34:32.246Z,31.90
2019-04-03T11:37:02.120Z,31.90
2019-04-03T11:39:31.651Z,31.80
2019-04-03T11:42:01.179Z,31.50
2019-04-03T11:44:32.605Z,31.70
2019-04-03T11:47:06.085Z,31.50
2019-04-03T11:49:35.522Z,30.90
2019-04-03T11:52:06.199Z,31.00
2019-04-03T11:54:37.009Z,30.60
2019-04-03T11:57:06.644Z,30.80
2019-04-03T11:59:35.987Z,31.50
2019-04-03T12:02:07.527Z,32.40
2019-04-03T12:04:36.454Z,33.40
2019-04-03T12:07:06.142Z,34.40
2019-04-03T12:09:35.949Z,34.50
2019-04-03T12:12:10.215Z,35.00
2019-04-03T12:14:39.195Z,35.00
2019-04-03T12:17:08.566Z,34.60
2019-04-03T12:19:38.904Z,34.10
2019-04-03T12:22:08.907Z,34.30
2019-04-03T12:24:38.626Z,33.90
2019-04-03T12:27:08.039Z,33.50
2019-04-03T12:29:37.565Z,33.90
2019-04-03T12:32:09.090Z,34.20
2019-04-03T12:34:38.278Z,35.20
2019-04-03T12:37:08.267Z,34.70
2019-04-03T12:39:38.167Z,34.80
2019-04-03T12:42:09.647Z,34.50
2019-04-03T12:44:39.376Z,34.80
2019-04-03T12:47:12.368Z,35.10
2019-04-03T12:49:41.813Z,34.90
2019-04-03T12:52:11.430Z,34.20
2019-04-03T12:54:42.950Z,34.30
2019-04-03T12:57:13.168Z,33.90
2019-04-03T12:59:42.578Z,34.20
2019-04-03T13:02:12.055Z,34.00
2019-04-03T13:04:41.610Z,33.30
2019-04-03T13:07:15.152Z,33.60
2019-04-03T13:09:45.579Z,33.50
2019-04-03T13:12:15.668Z,33.10
2019-04-03T13:14:48.847Z,33.10
2019-04-03T13:17:17.832Z,32.90
2019-04-03T13:19:47.572Z,31.30
2019-04-03T13:22:18.612Z,30.60
2019-04-03T13:24:49.651Z,30.50
2019-04-03T13:27:19.129Z,30.30
2019-04-03T13:29:48.567Z,30.30
2019-04-03T13:32:22.225Z,30.60
2019-04-03T13:34:50.403Z,30.70
2019-04-03T13:37:22.032Z,30.40
2019-04-03T13:39:50.813Z,31.10
2019-04-03T13:42:20.174Z,32.10
2019-04-03T13:44:49.708Z,31.50
2019-04-03T13:47:19.525Z,31.40
2019-04-03T13:49:50.068Z,31.60
2019-04-03T13:52:20.126Z,31.20
2019-04-03T13:54:49.476Z,31.20
2019-04-03T13:57:18.797Z,31.20
2019-04-03T13:59:48.306Z,31.30
2019-04-03T14:02:17.786Z,31.40
2019-04-03T14:04:48.598Z,32.30
2019-04-03T14:07:18.332Z,31.90
2019-04-03T14:10:19.806Z,32.00
2019-04-03T14:12:49.174Z,32.20
2019-04-03T14:15:20.751Z,32.10
2019-04-03T14:17:57.057Z,32.10
2019-04-03T14:20:24.185Z,31.80
2019-04-03T14:22:54.262Z,31.60
2019-04-03T14:25:28.052Z,31.10
2019-04-03T14:27:56.032Z,30.50
2019-04-03T14:30:25.803Z,30.30
2019-04-03T14:32:55.380Z,30.20
2019-04-03T14:35:45.870Z,30.00
2019-04-03T14:37:58.160Z,30.00
2019-04-03T14:40:26.931Z,29.70
2019-04-03T14:42:58.686Z,29.60
2019-04-03T14:45:38.725Z,29.40
2019-04-03T14:48:09.254Z,29.40
2019-04-03T14:50:39.619Z,29.90
2019-04-03T14:53:09.399Z,30.40
2019-04-03T14:58:09.862Z,29.60
2019-04-03T15:00:39.443Z,28.90
2019-04-03T15:03:08.793Z,27.90
2019-04-03T15:05:39.642Z,28.40
2019-04-03T15:08:09.461Z,29.10
2019-04-03T15:10:38.787Z,29.40
2019-04-03T15:13:08.147Z,29.60
2019-04-03T15:15:39.103Z,29.90
2019-04-03T15:18:10.100Z,30.20
2019-04-03T15:20:39.540Z,30.30
2019-04-03T15:23:09.347Z,31.30
2019-04-03T15:25:39.451Z,31.20
2019-04-03T15:28:10.352Z,31.20
2019-04-03T15:30:43.392Z,31.20
2019-04-03T15:33:11.503Z,31.30
2019-04-03T15:35:41.372Z,31.70
2019-04-03T15:38:13.427Z,32.50
2019-04-03T15:40:42.003Z,32.60
2019-04-03T15:43:14.548Z,32.90
2019-04-03T15:45:42.554Z,33.10
2019-04-03T15:48:12.008Z,33.40
2019-04-03T15:50:41.360Z,33.70
2019-04-03T15:53:10.718Z,34.40
2019-04-03T15:55:40.422Z,34.50
2019-04-03T15:58:11.663Z,34.60
2019-04-03T16:00:43.194Z,34.80
2019-04-03T16:03:12.891Z,34.90
2019-04-03T16:05:42.902Z,35.30
2019-04-03T16:08:13.484Z,35.50
2019-04-03T16:10:44.164Z,36.10
2019-04-03T16:13:15.825Z,36.10
2019-04-03T16:15:46.670Z,36.20
2019-04-03T16:18:20.023Z,36.60
2019-04-03T16:20:49.205Z,36.60
2019-04-03T16:23:19.465Z,36.90
2019-04-03T16:25:49.818Z,37.20
2019-04-03T16:28:19.812Z,37.60
2019-04-03T16:30:52.467Z,37.80
2019-04-03T16:33:23.978Z,38.10
2019-04-03T16:35:51.558Z,38.10
2019-04-03T16:38:22.063Z,38.60
2019-04-03T16:40:51.484Z,38.90
2019-04-03T16:43:22.151Z,38.80
2019-04-03T16:45:52.454Z,39.50
2019-04-03T16:48:21.910Z,39.30
2019-04-03T16:50:51.294Z,39.30
2019-04-03T16:53:20.841Z,39.60
2019-04-03T16:55:50.656Z,39.50
2019-04-03T16:58:20.570Z,39.80
2019-04-03T17:00:50.496Z,40.30
2019-04-03T17:03:20.147Z,40.40
2019-04-03T17:05:49.607Z,40.70
2019-04-03T17:08:19.469Z,41.00
2019-04-03T17:10:48.955Z,41.10
2019-04-03T17:13:20.339Z,41.40
2019-04-03T17:15:49.783Z,41.80
2019-04-03T17:18:19.352Z,42.50
2019-04-03T17:20:50.397Z,42.70
2019-04-03T17:23:20.124Z,43.40
2019-04-03T17:25:51.606Z,43.80
2019-04-03T17:28:22.004Z,43.60
2019-04-03T17:30:52.375Z,43.80
2019-04-03T17:33:22.177Z,44.10
2019-04-03T17:35:52.161Z,45.10
2019-04-03T17:38:21.777Z,44.60
2019-04-03T17:40:51.200Z,44.70
2019-04-03T17:43:21.449Z,45.40
2019-04-03T17:45:50.913Z,45.70
2019-04-03T17:48:20.367Z,46.00
2019-04-03T17:50:49.748Z,46.10
2019-04-03T17:53:19.213Z,46.20
2019-04-03T17:55:48.567Z,46.20
2019-04-03T17:58:17.942Z,46.70
2019-04-03T18:00:47.646Z,47.10
2019-04-03T18:03:19.371Z,46.90
2019-04-03T18:05:48.169Z,46.90
2019-04-03T18:08:18.506Z,47.10
2019-04-03T18:10:47.923Z,47.10
2019-04-03T18:13:17.287Z,47.00
2019-04-03T18:15:46.643Z,47.20
2019-04-03T18:18:16.104Z,47.30
2019-04-03T18:20:45.572Z,50.50
2019-04-03T18:23:15.036Z,47.70
2019-04-03T18:25:44.525Z,47.00
2019-04-03T18:28:13.947Z,47.90
2019-04-03T18:30:43.570Z,47.90
2019-04-03T18:33:13.096Z,48.00
2019-04-03T18:35:43.041Z,48.30
2019-04-03T18:38:12.572Z,48.30
2019-04-03T18:40:41.929Z,48.30
2019-04-03T18:43:11.506Z,48.40
2019-04-03T18:45:40.932Z,48.40
2019-04-03T18:48:10.411Z,48.20
2019-04-03T18:50:39.851Z,48.40
2019-04-03T18:53:11.177Z,48.40
2019-04-03T18:55:40.654Z,48.50
2019-04-03T18:58:10.104Z,48.40
2019-04-03T19:00:39.661Z,48.40
2019-04-03T19:03:09.203Z,48.70
2019-04-03T19:05:39.015Z,48.90
2019-04-03T19:08:13.503Z,48.90
2019-04-03T19:10:40.498Z,49.10
2019-04-03T19:13:13.652Z,49.00
2019-04-03T19:15:43.041Z,49.40
2019-04-03T19:18:19.263Z,49.50
2019-04-03T19:20:44.036Z,49.70
2019-04-03T19:23:14.127Z,50.00
2019-04-03T19:25:44.373Z,50.20
2019-04-03T19:28:14.143Z,50.40
2019-04-03T19:30:43.974Z,50.60
2019-04-03T19:33:14.458Z,50.60
2019-04-03T19:35:45.675Z,50.90
2019-04-03T19:38:15.381Z,50.90
2019-04-03T19:40:45.083Z,50.60
2019-04-03T19:43:15.409Z,50.70
2019-04-03T19:45:45.641Z,50.90
2019-04-03T19:48:15.143Z,50.70
2019-04-03T19:50:44.830Z,50.80
2019-04-03T19:53:14.605Z,50.90
2019-04-03T19:55:44.241Z,50.80
2019-04-03T19:58:14.079Z,51.10
2019-04-03T20:00:43.660Z,51.10
2019-04-03T20:03:14.202Z,51.30
2019-04-03T20:05:45.494Z,51.60
2019-04-03T20:08:15.069Z,52.00
2019-04-03T20:10:44.750Z,52.20
2019-04-03T20:13:14.276Z,52.50
2019-04-03T20:15:44.074Z,53.00
2019-04-03T20:18:13.632Z,53.10
2019-04-03T20:20:46.164Z,53.10
2019-04-03T20:23:15.536Z,53.30
2019-04-03T20:25:46.009Z,53.80
2019-04-03T20:28:16.269Z,53.80
2019-04-03T20:30:46.260Z,54.20
2019-04-03T20:33:15.798Z,54.30
2019-04-03T20:35:45.272Z,54.70
2019-04-03T20:38:14.718Z,54.60
2019-04-03T20:40:45.116Z,54.60
2019-04-03T20:43:14.628Z,54.50
2019-04-03T20:45:44.070Z,54.60
2019-04-03T20:48:13.442Z,54.80
2019-04-03T20:50:43.419Z,55.00
2019-04-03T20:53:14.917Z,55.10
2019-04-03T20:55:44.760Z,55.90
2019-04-03T20:58:14.748Z,56.40
2019-04-03T21:00:49.852Z,56.60
2019-04-03T21:03:19.646Z,57.10
2019-04-03T21:05:49.446Z,57.50
2019-04-03T21:08:19.940Z,57.50
2019-04-03T21:10:49.479Z,57.80
2019-04-03T21:13:27.551Z,58.20
2019-04-03T21:16:06.530Z,58.20
2019-04-03T21:18:36.158Z,58.50
2019-04-03T21:21:05.691Z,58.60
2019-04-03T21:23:35.170Z,58.70
2019-04-03T21:26:06.685Z,58.90
2019-04-03T21:28:37.358Z,59.30
2019-04-03T21:31:06.891Z,59.40
2019-04-03T21:33:36.324Z,59.80
2019-04-03T21:36:07.098Z,60.10
2019-04-03T21:38:37.153Z,60.50
2019-04-03T21:41:06.531Z,61.00
2019-04-03T21:43:36.067Z,60.70
2019-04-03T21:46:07.017Z,61.00
2019-04-03T21:48:36.523Z,61.70
2019-04-03T21:51:07.219Z,62.10
2019-04-03T21:53:38.425Z,62.20
2019-04-03T21:56:07.780Z,62.70
2019-04-03T21:58:42.580Z,70.40
2019-04-03T22:01:16.441Z,64.60
2019-04-03T22:03:46.854Z,63.80
2019-04-03T22:06:18.398Z,63.20
2019-04-03T22:08:51.276Z,63.50
2019-04-03T22:11:22.371Z,63.80
2019-04-03T22:13:52.417Z,65.20
2019-04-03T22:16:22.427Z,63.90
2019-04-03T22:18:55.525Z,63.80
2019-04-03T22:21:25.024Z,63.20
2019-04-03T22:23:54.449Z,63.70
2019-04-03T22:26:23.858Z,64.80
2019-04-03T22:28:53.209Z,74.10
2019-04-03T22:31:22.829Z,65.40
2019-04-03T22:33:53.698Z,65.20
2019-04-03T22:36:23.107Z,65.30
2019-04-03T22:38:53.545Z,65.30
2019-04-03T22:41:22.931Z,65.70
2019-04-03T22:43:53.232Z,66.10
2019-04-03T22:46:22.691Z,66.50
2019-04-03T22:48:52.079Z,66.60
2019-04-03T22:51:21.453Z,66.70
2019-04-03T22:53:50.788Z,65.80
2019-04-03T22:56:20.167Z,65.30
2019-04-03T22:58:52.682Z,66.00
2019-04-03T23:01:20.985Z,65.30
2019-04-03T23:03:50.478Z,66.10
2019-04-03T23:06:19.924Z,65.70
2019-04-03T23:08:49.316Z,66.90
2019-04-03T23:11:19.178Z,65.70
2019-04-03T23:13:49.791Z,64.20
2019-04-03T23:16:19.119Z,64.80
2019-04-03T23:18:49.531Z,65.70
2019-04-03T23:21:19.446Z,65.60
2019-04-03T23:23:48.874Z,69.10
2019-04-03T23:26:18.269Z,81.30
2019-04-03T23:28:49.222Z,70.40
2019-04-03T23:31:19.415Z,73.50
2019-04-03T23:33:50.397Z,66.60
2019-04-03T23:36:21.063Z,66.70
2019-04-03T23:38:51.474Z,66.40
2019-04-03T23:41:21.283Z,66.80
2019-04-03T23:43:50.650Z,66.30
2019-04-03T23:46:20.396Z,66.30
2019-04-03T23:48:51.377Z,67.80
2019-04-03T23:51:23.345Z,67.30
2019-04-03T23:53:51.962Z,69.40
2019-04-03T23:56:21.369Z,73.70
2019-04-03T23:58:50.856Z,83.40
